Remus, Michigan
Current Conditions -  °F | °C
As of 10:14 AM on Wednesday 22 Oct 2014 (Local Time) from KRQB Reporting Station
Overcast Overcast  
Wind Chill: 31°   Ceiling: 1400
Heat Index: 35°   Visibility: 10mi
Dew Point: 35°   Wind: 5mph
Humidity: 100%   Direction: 40°NE
Pressure: 30.38"   Gusts: NA
Location:  43.6°N, 85.14°W
Report Text: KRQB 221414Z AUTO 04004KT 10SM OVC014 02/02 A3038 RMK AO2 T00160016
Loading
Personal Weather Stations






























Interactive Weather Map
Tropical Storm Tracking
New forecast layout! Learn more

10-Day Weather Forecast

Advertisements
Track Severe Weather on mobile